Hauptseite
METAR-TAF:

METAR-TAF

Flughäfen :

Flughafen Brüssel-Zaventem

Brüssel, Belgien

Breite: 50-54N, Länge: 004-32E, Höhe: 55 m

Beobachtung

Neuester Wetterbericht von vor 38 Minuten, um 06:50 UTC
Wind 2 kt aus unterschiedlichen Richtungen
Temperatur 11°C
Luftfeuchtigkeit 87%
Luftdruck 1024 hPa
Sichtweite: 7000 m

METAR: EBBR 090650Z VRB02KT 7000 NSC 11/09 Q1024 BECMG 9999 NSW

Zeit: 09:28 (07:28 UTC)

Prognose

Neuester Wetterbericht von vor 2 Stunden und 28 Minuten, um 05:00 UTC
Gültige Prognose vom 09 um 06 UTC bis 10 um 12 UTC
Wind 6 kt aus Ost/Nordost
Sichtweite 10 km oder mehr
keine Wolken unter 1500 m und keine Kumulonimbus oder Gewitterwolken
Wahrscheinlichkeit 30% :
Zeitweise
vom 09 um 06 UTC bis 09 um 07 UTC
Sichtweite: 4500 m
feuchter Dunst

TAF: EBBR 090500Z 0906/1012 06006KT CAVOK PROB30 TEMPO 0906/0907 4500 BR

Wetterbeobachtungen und Prognosen von mehr als 4000 Flughäfen (METAR und TAF Bericht).

Die verfügbaren Stationen werden durch gelbe und rote Markierungen auf der Karte dargestellt.

Führen Sie die Maus auf sie, um den Namen der Station zu sehen.

Darauf klicken, um die Beobachtung von Wetterbeobachtungen und Prognosen zu sehen.

Um die Karte zu ändern : klicken Sie auf den grünen Tasten mit einem schwarzen Kreuz Zum Vergrößern, auf den grünen Button mit einem Gedankenstrich zu verkleinern, oder auf die grünen Pfeile für benachbarte Karten.


METAR-TAF: